Time;durP1;ratioP1;P1;durP2;ratioP2;P2;SDS_P1;SDS_P2;PMS_P1;PMS_P2;Temp;Humidity;BMP_temperature;BMP_pressure;BME280_temperature;BME280_humidity;BME280_pressure;Samples;Min_cycle;Max_cycle;Signal;HPM_P1;HPM_P2
2022/03/26 00:01:00;;;;;;;110.57;54.78;;;5.60;99.90;;;;;;6226345;22;20026;-86
2022/03/26 00:03:25;;;;;;;112.80;56.30;;;5.50;99.90;;;;;;6249902;22;20211;-88
2022/03/26 00:05:51;;;;;;;118.17;56.03;;;5.40;99.90;;;;;;6250780;22;20454;-87
2022/03/26 00:08:17;;;;;;;110.43;55.57;;;5.40;99.90;;;;;;6225682;22;20019;-89
2022/03/26 00:10:43;;;;;;;106.10;54.77;;;5.40;99.90;;;;;;6278296;22;20016;-87
2022/03/26 00:13:09;;;;;;;110.10;55.83;;;5.40;99.90;;;;;;6278430;22;20376;-88
2022/03/26 00:15:35;;;;;;;116.97;55.47;;;5.40;99.90;;;;;;6250907;22;20115;-88
2022/03/26 00:18:01;;;;;;;118.70;56.97;;;5.30;99.90;;;;;;6251313;22;20464;-87
2022/03/26 00:20:27;;;;;;;117.15;57.72;;;5.30;99.90;;;;;;6250954;22;20023;-89
2022/03/26 00:22:54;;;;;;;117.73;58.17;;;5.20;99.90;;;;;;6250847;22;20015;-88
2022/03/26 00:25:19;;;;;;;;;;;5.20;99.90;;;;;;6278546;22;20133;-88
2022/03/26 00:27:45;;;;;;;117.63;55.75;;;5.20;99.90;;;;;;6225689;22;19950;-88
2022/03/26 00:30:11;;;;;;;131.97;64.20;;;5.10;99.90;;;;;;6250815;22;20016;-88
2022/03/26 00:32:37;;;;;;;140.33;67.37;;;5.10;99.90;;;;;;6277971;22;20018;-88
2022/03/26 00:35:04;;;;;;;159.75;71.78;;;5.10;99.90;;;;;;6250981;22;20016;-88
2022/03/26 00:37:30;;;;;;;153.70;72.00;;;5.10;99.90;;;;;;6250910;22;20046;-88
2022/03/26 00:39:56;;;;;;;160.83;74.30;;;5.10;99.90;;;;;;6250678;22;20099;-89
2022/03/26 00:42:22;;;;;;;159.13;71.70;;;5.10;99.90;;;;;;6277874;22;20039;-89
2022/03/26 00:44:47;;;;;;;147.80;73.63;;;5.20;99.90;;;;;;6277838;22;20441;-88
2022/03/26 00:47:13;;;;;;;150.70;71.63;;;5.20;99.90;;;;;;6277781;22;20051;-88
2022/03/26 00:49:38;;;;;;;153.13;70.40;;;5.20;99.90;;;;;;6250584;22;20074;-88
2022/03/26 00:52:05;;;;;;;142.47;69.80;;;5.20;99.90;;;;;;6251084;22;20012;-89
2022/03/26 00:54:32;;;;;;;145.93;68.28;;;5.30;99.90;;;;;;6251002;22;20094;-89
2022/03/26 00:56:58;;;;;;;137.35;66.70;;;5.30;99.90;;;;;;6226004;22;20012;-89
2022/03/26 00:59:24;;;;;;;135.00;64.50;;;5.20;99.90;;;;;;6250677;22;20097;-86
2022/03/26 01:01:49;;;;;;;145.47;68.53;;;5.20;99.90;;;;;;6225348;22;20031;-86
2022/03/26 01:04:15;;;;;;;140.10;68.80;;;5.20;99.90;;;;;;6277713;22;20038;-89
2022/03/26 01:06:41;;;;;;;147.23;66.83;;;5.20;99.90;;;;;;6277776;22;20015;-89
2022/03/26 01:09:07;;;;;;;138.17;67.97;;;5.20;99.90;;;;;;6250558;22;20023;-88
2022/03/26 01:11:34;;;;;;;145.60;68.63;;;5.10;99.90;;;;;;6250694;22;20019;-89
2022/03/26 01:14:00;;;;;;;153.15;71.70;;;5.10;99.90;;;;;;6225327;22;20579;-90
2022/03/26 01:16:27;;;;;;;147.02;67.28;;;5.00;99.90;;;;;;6224710;22;20019;-88
2022/03/26 01:18:55;;;;;;;144.05;66.03;;;4.90;99.90;;;;;;6277335;22;20091;-85
2022/03/26 01:21:22;;;;;;;149.18;67.50;;;4.90;99.90;;;;;;6250274;22;20433;-88
2022/03/26 01:23:48;;;;;;;147.02;68.78;;;4.90;99.90;;;;;;6277451;22;20011;-88
2022/03/26 01:26:15;;;;;;;154.98;69.10;;;4.90;99.90;;;;;;6250639;22;20026;-86
2022/03/26 01:28:44;;;;;;;161.00;73.75;;;4.90;99.90;;;;;;6250158;22;20099;-87
2022/03/26 01:31:10;;;;;;;163.00;75.40;;;4.90;99.90;;;;;;6250674;22;20062;-88
2022/03/26 01:33:36;;;;;;;167.25;72.55;;;4.90;99.90;;;;;;6250260;22;20312;-88
2022/03/26 01:36:03;;;;;;;168.47;76.37;;;4.90;99.90;;;;;;6250378;22;20433;-88
2022/03/26 01:38:28;;;;;;;167.32;77.03;;;4.90;99.90;;;;;;6250286;22;20031;-87
2022/03/26 01:40:54;;;;;;;166.70;74.87;;;4.80;99.90;;;;;;6277272;22;20054;-87
2022/03/26 01:43:20;;;;;;;184.57;79.67;;;4.90;99.90;;;;;;6249869;22;20012;-87
2022/03/26 01:45:45;;;;;;;186.00;82.53;;;4.90;99.90;;;;;;6224693;22;20015;-87
2022/03/26 01:48:11;;;;;;;200.85;87.10;;;4.90;99.90;;;;;;6250265;22;20319;-88
2022/03/26 01:50:39;;;;;;;204.45;88.55;;;5.00;99.90;;;;;;6250400;22;20011;-89
2022/03/26 01:53:04;;;;;;;207.80;91.40;;;5.00;99.90;;;;;;6249888;22;20027;-88
2022/03/26 01:55:30;;;;;;;210.88;91.55;;;5.10;99.90;;;;;;6224574;22;20019;-87
2022/03/26 01:57:56;;;;;;;194.87;89.60;;;5.10;99.90;;;;;;6250068;22;20038;-88
2022/03/26 02:05:46;;;;;;;216.73;90.47;;;5.30;99.90;;;;;;6275836;22;20043;-86
2022/03/26 02:08:16;;;;;;;211.50;91.57;;;5.30;99.90;;;;;;6250696;22;20024;-86
2022/03/26 02:10:42;;;;;;;225.23;91.25;;;5.30;99.90;;;;;;6224324;22;20023;-86
2022/03/26 02:13:08;;;;;;;195.10;86.65;;;5.30;99.90;;;;;;6225150;22;20340;-86
2022/03/26 02:15:36;;;;;;;174.83;81.20;;;5.30;99.90;;;;;;6250029;22;20103;-87
2022/03/26 02:18:03;;;;;;;175.65;78.47;;;5.30;99.90;;;;;;6250054;22;20016;-86
2022/03/26 02:20:28;;;;;;;161.98;76.97;;;5.30;99.90;;;;;;6249825;22;20081;-87
2022/03/26 02:23:01;;;;;;;161.52;77.85;;;5.20;99.90;;;;;;6250814;22;20448;-88
2022/03/26 02:25:27;;;;;;;178.35;79.93;;;5.10;99.90;;;;;;6224100;22;20457;-87
2022/03/26 02:27:53;;;;;;;174.25;78.93;;;5.00;99.90;;;;;;6224310;22;20046;-89
2022/03/26 02:30:20;;;;;;;167.67;79.87;;;4.90;99.90;;;;;;6249755;22;20456;-88
2022/03/26 02:32:46;;;;;;;191.32;85.75;;;4.90;99.90;;;;;;6224420;22;20016;-88
2022/03/26 02:35:12;;;;;;;183.97;84.23;;;4.90;99.90;;;;;;6276598;22;20022;-86
2022/03/26 02:37:37;;;;;;;203.53;89.07;;;4.90;99.90;;;;;;6249299;22;20016;-88
2022/03/26 02:40:06;;;;;;;182.77;82.57;;;4.90;99.90;;;;;;6276536;22;20019;-89
2022/03/26 02:42:36;;;;;;;188.88;82.10;;;4.90;99.90;;;;;;6224334;22;20451;-88
2022/03/26 02:45:03;;;;;;;184.07;77.20;;;4.90;99.90;;;;;;6249295;22;20011;-88
2022/03/26 02:47:28;;;;;;;172.40;81.50;;;4.90;99.90;;;;;;6249519;22;20047;-88
2022/03/26 02:49:54;;;;;;;182.63;81.80;;;4.90;99.90;;;;;;6224095;22;20047;-88
2022/03/26 02:52:22;;;;;;;175.02;78.07;;;4.90;99.90;;;;;;6249408;22;20026;-88
2022/03/26 02:54:47;;;;;;;165.77;75.60;;;4.80;99.90;;;;;;6224115;22;20061;-88
2022/03/26 02:57:13;;;;;;;170.07;76.53;;;4.80;99.90;;;;;;6249457;22;20091;-89
2022/03/26 02:59:39;;;;;;;171.95;78.38;;;4.70;99.90;;;;;;6276286;22;20039;-88
2022/03/26 03:02:07;;;;;;;167.30;77.57;;;4.80;99.90;;;;;;6224193;22;20030;-88
2022/03/26 03:04:34;;;;;;;171.13;75.63;;;4.70;99.90;;;;;;6265173;22;20016;-87
2022/03/26 03:07:00;;;;;;;165.80;75.22;;;4.70;99.90;;;;;;6245997;23;20020;-88
2022/03/26 03:09:26;;;;;;;174.10;78.37;;;4.60;99.90;;;;;;6193979;23;20023;-87
2022/03/26 03:11:52;;;;;;;168.60;75.07;;;4.60;99.90;;;;;;6219295;23;20051;-89
2022/03/26 03:14:18;;;;;;;173.20;79.30;;;4.60;99.90;;;;;;6218575;23;20027;-87
2022/03/26 03:16:45;;;;;;;181.93;79.97;;;4.60;99.90;;;;;;6218699;23;20025;-88
2022/03/26 03:19:11;;;;;;;173.32;77.80;;;4.50;99.90;;;;;;6245876;23;20386;-88
2022/03/26 03:21:37;;;;;;;170.52;78.85;;;4.60;99.90;;;;;;6245784;23;20048;-87
2022/03/26 03:24:03;;;;;;;178.47;82.53;;;4.60;99.90;;;;;;6218974;23;20019;-88
2022/03/26 03:26:29;;;;;;;173.53;78.87;;;4.60;99.90;;;;;;6245615;23;20020;-87
2022/03/26 03:28:55;;;;;;;180.50;80.25;;;4.60;99.90;;;;;;6218758;23;20442;-87
2022/03/26 03:31:20;;;;;;;176.77;81.60;;;4.60;99.90;;;;;;6218856;23;20099;-88
2022/03/26 03:33:46;;;;;;;171.20;80.43;;;4.50;99.90;;;;;;6246246;23;20008;-88
2022/03/26 03:36:12;;;;;;;190.68;80.70;;;4.40;99.90;;;;;;6220998;23;20019;-87
2022/03/26 03:38:38;;;;;;;180.87;78.83;;;4.30;99.90;;;;;;6247979;23;20007;-88
2022/03/26 03:41:04;;;;;;;185.40;83.20;;;4.30;99.90;;;;;;6220797;23;20016;-87
2022/03/26 03:43:29;;;;;;;186.40;83.13;;;4.20;99.90;;;;;;6247525;23;20020;-87
2022/03/26 03:45:55;;;;;;;213.43;88.33;;;4.10;99.90;;;;;;6247564;23;20012;-87
2022/03/26 03:48:21;;;;;;;178.20;78.57;;;4.10;99.90;;;;;;6220379;23;20054;-87
2022/03/26 03:50:47;;;;;;;193.02;83.72;;;4.10;99.90;;;;;;6195935;23;20410;-88
2022/03/26 03:53:13;;;;;;;176.70;79.67;;;4.00;99.90;;;;;;6247792;23;20019;-88
2022/03/26 03:55:39;;;;;;;195.13;84.53;;;4.00;99.90;;;;;;6220724;23;20565;-88
2022/03/26 03:58:04;;;;;;;194.23;86.43;;;4.00;99.90;;;;;;6195268;23;20030;-88
2022/03/26 04:00:30;;;;;;;192.40;84.65;;;4.00;99.90;;;;;;6247983;23;20044;-88
2022/03/26 04:02:56;;;;;;;185.27;82.90;;;4.10;99.90;;;;;;6220591;23;20326;-88
2022/03/26 04:05:21;;;;;;;181.88;84.18;;;4.10;99.90;;;;;;6267949;22;20019;-88
2022/03/26 04:07:47;;;;;;;192.27;83.53;;;4.10;99.90;;;;;;6250873;22;20310;-87
2022/03/26 04:10:13;;;;;;;184.10;83.23;;;4.20;99.90;;;;;;6277846;22;20042;-87
2022/03/26 04:12:41;;;;;;;185.90;80.53;;;4.20;99.90;;;;;;6251021;22;20066;-88
2022/03/26 04:15:08;;;;;;;177.02;81.60;;;4.10;99.90;;;;;;6250780;22;20019;-88
2022/03/26 04:17:34;;;;;;;168.45;75.20;;;4.10;99.90;;;;;;6278281;22;20015;-88
2022/03/26 04:20:01;;;;;;;164.70;76.47;;;4.10;99.90;;;;;;6250637;22;20012;-87
2022/03/26 04:22:27;;;;;;;168.43;78.63;;;4.10;99.90;;;;;;6278213;22;20047;-88
2022/03/26 04:24:53;;;;;;;169.23;78.82;;;4.10;99.90;;;;;;6250894;22;20065;-88
2022/03/26 04:27:18;;;;;;;154.23;75.60;;;4.10;99.90;;;;;;6277894;22;20016;-88
2022/03/26 04:29:44;;;;;;;170.43;77.13;;;4.10;99.90;;;;;;6250655;22;20461;-88
2022/03/26 04:32:10;;;;;;;160.20;73.17;;;4.10;99.90;;;;;;6250923;22;20016;-88
2022/03/26 04:34:37;;;;;;;156.53;74.00;;;4.00;99.90;;;;;;6277734;22;20019;-88
2022/03/26 04:37:04;;;;;;;168.30;72.82;;;4.00;99.90;;;;;;6277888;22;20015;-87
2022/03/26 04:39:30;;;;;;;150.25;71.05;;;4.00;99.90;;;;;;6250428;22;20020;-88
2022/03/26 04:41:55;;;;;;;149.20;71.80;;;4.00;99.90;;;;;;6225185;22;20342;-88
2022/03/26 04:44:21;;;;;;;177.17;72.30;;;4.00;99.90;;;;;;6277465;22;20019;-88
2022/03/26 04:46:47;;;;;;;243.23;68.73;;;4.00;99.90;;;;;;6250920;22;20012;-88
2022/03/26 04:49:12;;;;;;;633.57;67.03;;;3.90;99.90;;;;;;6277507;22;20022;-88
2022/03/26 04:51:38;;;;;;;159.52;54.25;;;3.80;99.90;;;;;;6277844;22;20019;-88
2022/03/26 04:54:04;;;;;;;173.10;52.13;;;3.60;99.90;;;;;;6250396;22;20019;-88
2022/03/26 04:56:29;;;;;;;373.92;61.78;;;3.60;99.90;;;;;;6277747;22;20087;-88
2022/03/26 04:58:55;;;;;;;273.63;59.00;;;3.50;99.90;;;;;;6225475;22;20022;-88
2022/03/26 05:01:23;;;;;;;370.48;58.67;;;3.50;99.90;;;;;;6250592;22;20022;-88
2022/03/26 05:03:49;;;;;;;140.57;57.05;;;3.40;99.90;;;;;;6249326;22;20095;-88
2022/03/26 05:06:15;;;;;;;254.90;52.67;;;3.30;99.90;;;;;;6219988;23;20024;-88
2022/03/26 05:08:41;;;;;;;150.88;50.40;;;3.30;99.90;;;;;;6247100;23;20016;-88
2022/03/26 05:11:06;;;;;;;89.77;47.10;;;3.30;99.90;;;;;;6219640;23;20401;-87
2022/03/26 05:13:32;;;;;;;76.45;43.88;;;3.30;99.90;;;;;;6246754;23;20024;-88
2022/03/26 05:15:58;;;;;;;117.50;49.22;;;3.30;99.90;;;;;;6246900;23;20075;-88
2022/03/26 05:18:24;;;;;;;116.97;49.97;;;3.20;99.90;;;;;;6220320;23;20119;-89
2022/03/26 05:20:50;;;;;;;139.30;52.20;;;3.20;99.90;;;;;;6220409;23;20016;-88
2022/03/26 05:23:16;;;;;;;159.87;52.77;;;3.20;99.90;;;;;;6220121;23;20026;-88
2022/03/26 05:25:42;;;;;;;85.77;48.67;;;3.30;99.90;;;;;;6219856;23;20023;-87
2022/03/26 05:28:08;;;;;;;109.37;49.43;;;3.20;99.90;;;;;;6220127;23;20040;-88
2022/03/26 05:30:34;;;;;;;97.17;51.23;;;3.30;99.90;;;;;;6194839;23;20070;-88
2022/03/26 05:33:00;;;;;;;119.40;52.15;;;3.20;99.90;;;;;;6194329;23;20020;-89
2022/03/26 05:35:27;;;;;;;104.03;53.30;;;3.30;99.90;;;;;;6246687;23;20019;-88
2022/03/26 05:37:53;;;;;;;93.93;49.75;;;3.30;99.90;;;;;;6219750;23;20013;-88
2022/03/26 05:40:20;;;;;;;86.20;50.87;;;3.30;99.90;;;;;;6219831;23;20073;-87
2022/03/26 05:42:46;;;;;;;;;;;3.30;99.90;;;;;;6220110;23;20258;-87
2022/03/26 05:45:12;;;;;;;93.20;51.60;;;3.30;99.90;;;;;;6246493;23;19911;-88
2022/03/26 05:47:39;;;;;;;100.97;54.83;;;3.40;99.90;;;;;;6246798;23;20020;-87
2022/03/26 05:50:10;;;;;;;85.05;49.97;;;3.40;99.90;;;;;;6246700;23;20074;-89
2022/03/26 05:52:37;;;;;;;101.97;55.53;;;3.40;99.90;;;;;;6219530;23;20016;-88
2022/03/26 05:55:03;;;;;;;97.63;53.88;;;3.40;99.90;;;;;;6246259;23;20464;-88
2022/03/26 05:57:29;;;;;;;103.50;55.58;;;3.50;99.90;;;;;;6219143;23;20030;-88
2022/03/26 05:59:54;;;;;;;109.45;56.55;;;3.50;99.90;;;;;;6246377;23;20016;-87
2022/03/26 06:02:21;;;;;;;110.35;57.88;;;3.50;99.90;;;;;;6246367;23;20027;-87
2022/03/26 06:04:48;;;;;;;117.38;61.13;;;3.50;99.90;;;;;;6233152;22;20065;-88
2022/03/26 06:07:14;;;;;;;125.40;64.28;;;3.60;99.90;;;;;;6276980;22;20020;-87
2022/03/26 06:09:40;;;;;;;116.60;62.28;;;3.60;99.90;;;;;;6249914;22;20020;-88
2022/03/26 06:12:07;;;;;;;120.30;63.58;;;3.70;99.90;;;;;;6249988;22;20015;-87
2022/03/26 06:14:33;;;;;;;128.15;65.97;;;3.70;99.90;;;;;;6276738;22;20030;-87
2022/03/26 06:16:58;;;;;;;129.82;68.63;;;3.70;99.90;;;;;;6249860;22;20022;-88
2022/03/26 06:19:26;;;;;;;142.10;68.75;;;3.80;99.90;;;;;;6276801;22;20015;-88
2022/03/26 06:21:55;;;;;;;151.65;74.35;;;3.80;99.90;;;;;;6250717;22;20024;-88
2022/03/26 06:24:20;;;;;;;156.25;72.45;;;3.90;99.90;;;;;;6249806;22;20069;-88
2022/03/26 06:26:48;;;;;;;152.53;71.43;;;4.00;99.90;;;;;;6224588;22;20019;-87
2022/03/26 06:29:14;;;;;;;139.63;69.63;;;4.20;99.90;;;;;;6276675;22;20015;-87
2022/03/26 06:31:40;;;;;;;138.88;65.55;;;4.30;99.90;;;;;;6276818;22;20016;-88
2022/03/26 06:34:06;;;;;;;152.70;72.17;;;4.40;99.90;;;;;;6249532;22;20078;-88
2022/03/26 06:36:33;;;;;;;151.17;69.13;;;4.50;99.90;;;;;;6276843;22;20345;-87
2022/03/26 06:38:59;;;;;;;139.98;67.97;;;4.60;99.90;;;;;;6249804;22;20034;-88
2022/03/26 06:41:25;;;;;;;138.88;69.10;;;4.70;99.90;;;;;;6276687;22;20480;-87
2022/03/26 06:43:52;;;;;;;133.70;65.95;;;4.80;99.90;;;;;;6276834;22;20476;-88
2022/03/26 06:46:17;;;;;;;138.55;67.60;;;4.90;99.90;;;;;;6249683;22;20436;-88
2022/03/26 06:48:43;;;;;;;136.53;68.17;;;5.10;99.90;;;;;;6249644;22;20105;-87
2022/03/26 06:51:09;;;;;;;154.40;70.95;;;5.50;99.90;;;;;;6224672;22;20061;-87
2022/03/26 06:53:36;;;;;;;156.70;74.63;;;5.70;99.90;;;;;;6249789;22;20019;-88
2022/03/26 06:56:06;;;;;;;151.07;75.15;;;6.10;99.90;;;;;;6277059;22;20388;-88
2022/03/26 06:58:33;;;;;;;146.88;74.00;;;6.80;99.90;;;;;;6224574;22;20359;-88
2022/03/26 07:00:59;;;;;;;146.07;73.55;;;7.40;99.90;;;;;;6249702;22;20011;-89
2022/03/26 07:03:25;;;;;;;153.67;73.37;;;7.80;99.90;;;;;;6276892;22;20057;-89
2022/03/26 07:05:51;;;;;;;146.97;73.77;;;8.20;99.90;;;;;;6256136;22;20446;-88
2022/03/26 07:08:17;;;;;;;145.05;72.22;;;8.60;99.90;;;;;;6219994;23;20020;-88
2022/03/26 07:10:45;;;;;;;150.80;74.47;;;9.00;99.90;;;;;;6248030;23;20107;-88
2022/03/26 07:13:11;;;;;;;146.68;71.03;;;9.20;99.90;;;;;;6221369;23;20016;-87
2022/03/26 07:15:37;;;;;;;141.38;69.93;;;9.20;99.90;;;;;;6196368;23;20020;-88
2022/03/26 07:18:03;;;;;;;135.33;69.37;;;9.40;99.90;;;;;;6248135;23;20055;-86
2022/03/26 07:20:29;;;;;;;136.20;70.20;;;9.50;99.90;;;;;;6248071;23;20012;-87
2022/03/26 07:22:54;;;;;;;131.57;69.77;;;9.60;99.90;;;;;;6221437;23;20020;-86
2022/03/26 07:25:20;;;;;;;132.60;66.97;;;9.80;99.90;;;;;;6220906;23;20251;-86
2022/03/26 07:27:46;;;;;;;118.67;62.53;;;10.20;99.90;;;;;;6221181;23;20046;-86
2022/03/26 07:30:11;;;;;;;125.60;66.00;;;10.60;99.90;;;;;;6221199;23;20075;-87
2022/03/26 07:32:37;;;;;;;122.63;66.27;;;10.70;99.90;;;;;;6220987;23;20099;-86
2022/03/26 07:35:04;;;;;;;130.10;67.03;;;10.60;99.90;;;;;;6247796;23;20016;-86
2022/03/26 07:37:33;;;;;;;121.97;65.18;;;10.70;99.90;;;;;;6248078;23;20026;-87
2022/03/26 07:40:00;;;;;;;123.45;64.35;;;10.70;99.90;;;;;;6247979;23;20098;-87
2022/03/26 07:42:26;;;;;;;121.25;64.78;;;10.80;99.90;;;;;;6248113;23;20016;-88
2022/03/26 07:44:51;;;;;;;117.57;64.72;;;11.10;99.90;;;;;;6221144;23;20008;-87
2022/03/26 07:47:17;;;;;;;123.77;63.33;;;11.40;99.90;;;;;;6196162;23;20050;-87
2022/03/26 07:49:43;;;;;;;127.93;66.50;;;11.50;99.90;;;;;;6221100;23;20020;-87
2022/03/26 07:52:09;;;;;;;125.00;65.13;;;11.60;99.90;;;;;;6220918;23;20020;-87
2022/03/26 07:54:34;;;;;;;126.63;63.88;;;11.70;99.90;;;;;;6221032;23;20054;-86
2022/03/26 07:57:00;;;;;;;121.90;65.73;;;11.40;99.90;;;;;;6220748;23;20016;-87
2022/03/26 07:59:26;;;;;;;123.67;63.67;;;11.10;99.90;;;;;;6221290;23;20030;-87
2022/03/26 08:02:07;;;;;;;122.90;64.47;;;10.70;99.90;;;;;;6219662;23;20461;-85
2022/03/26 08:04:35;;;;;;;117.57;61.88;;;10.40;99.90;;;;;;6193586;22;20039;-86
2022/03/26 08:07:00;;;;;;;116.15;62.83;;;10.10;99.90;;;;;;6195268;23;20027;-86
2022/03/26 08:09:27;;;;;;;108.50;59.37;;;10.00;99.90;;;;;;6196399;23;20020;-86
2022/03/26 08:11:52;;;;;;;107.70;59.42;;;9.80;99.90;;;;;;6247870;23;20097;-86
2022/03/26 08:14:18;;;;;;;117.37;61.07;;;9.80;99.90;;;;;;6221398;23;20327;-87
2022/03/26 08:16:44;;;;;;;109.87;60.70;;;9.70;99.90;;;;;;6247419;23;20059;-87
2022/03/26 08:19:22;;;;;;;112.53;58.40;;;9.70;99.90;;;;;;6220731;23;20078;-86
2022/03/26 08:22:00;;;;;;;109.10;58.00;;;9.70;99.90;;;;;;6193682;23;20021;-86
2022/03/26 08:24:26;;;;;;;111.43;58.28;;;9.80;99.90;;;;;;6217620;23;20078;-87
2022/03/26 08:26:53;;;;;;;96.30;56.00;;;9.80;99.90;;;;;;6220049;23;20008;-85
2022/03/26 08:29:19;;;;;;;;;;;9.90;99.90;;;;;;6195300;23;20090;-87
2022/03/26 08:31:44;;;;;;;102.35;54.95;;;10.00;99.90;;;;;;6195526;23;20357;-87
2022/03/26 08:34:13;;;;;;;97.10;53.10;;;10.10;99.90;;;;;;6220215;23;20315;-87
2022/03/26 08:36:54;;;;;;;102.15;54.53;;;10.10;99.90;;;;;;6220328;23;20020;-88
2022/03/26 08:39:44;;;;;;;94.20;53.33;;;10.20;99.90;;;;;;6220241;23;20023;-87
2022/03/26 08:42:14;;;;;;;90.32;50.67;;;10.30;99.90;;;;;;6195127;23;20082;-87
2022/03/26 08:44:40;;;;;;;85.30;48.15;;;10.40;99.90;;;;;;6195120;23;20012;-85
2022/03/26 08:47:06;;;;;;;82.77;47.77;;;10.50;99.90;;;;;;6195327;23;20020;-85
2022/03/26 08:49:33;;;;;;;79.78;48.20;;;10.60;99.90;;;;;;6219927;23;20020;-86
2022/03/26 08:52:08;;;;;;;78.45;45.17;;;10.70;99.90;;;;;;6195008;23;20012;-86
2022/03/26 08:54:34;;;;;;;70.97;43.00;;;10.80;99.90;;;;;;6195069;23;20027;-87
2022/03/26 08:57:01;;;;;;;68.97;42.43;;;10.90;99.90;;;;;;6246841;23;20349;-86
2022/03/26 08:59:26;;;;;;;;;;;11.00;99.90;;;;;;6220432;23;20016;-87
2022/03/26 09:01:52;;;;;;;62.85;37.60;;;11.00;99.90;;;;;;6195032;23;19915;-86
2022/03/26 09:04:18;;;;;;;69.78;43.03;;;11.20;99.90;;;;;;6194518;22;20016;-86
2022/03/26 09:06:46;;;;;;;59.10;38.03;;;11.30;99.90;;;;;;6219918;23;20074;-91
2022/03/26 09:09:14;;;;;;;55.15;37.53;;;11.40;99.90;;;;;;6195140;23;20442;-87
2022/03/26 09:11:40;;;;;;;56.95;36.55;;;11.50;99.90;;;;;;6246588;23;20095;-87
2022/03/26 09:14:06;;;;;;;52.17;32.63;;;11.60;99.90;;;;;;6220089;23;20015;-89
2022/03/26 09:16:32;;;;;;;46.90;30.60;;;11.70;99.90;;;;;;6195002;23;20016;-89
2022/03/26 09:18:59;;;;;;;42.70;28.57;;;11.80;99.90;;;;;;6195393;23;20472;-88
2022/03/26 09:21:26;;;;;;;45.65;29.33;;;11.90;99.90;;;;;;6194253;23;20094;-90
2022/03/26 09:23:52;;;;;;;37.63;26.05;;;12.00;99.90;;;;;;6220159;23;20063;-87
2022/03/26 09:26:17;;;;;;;39.67;26.67;;;12.10;99.90;;;;;;6217957;23;20008;-87
2022/03/26 09:28:45;;;;;;;32.67;21.77;;;12.20;99.90;;;;;;6219164;23;20107;-88
2022/03/26 09:31:11;;;;;;;31.30;20.75;;;12.30;99.90;;;;;;6219805;23;20020;-88
2022/03/26 09:33:37;;;;;;;37.00;22.13;;;12.40;99.90;;;;;;6194602;23;20341;-89
2022/03/26 09:36:11;;;;;;;41.23;25.87;;;12.40;99.90;;;;;;6192996;23;20027;-88
2022/03/26 09:38:37;;;;;;;36.20;22.75;;;12.50;99.90;;;;;;6193502;23;20015;-87
2022/03/26 09:41:04;;;;;;;36.30;22.57;;;12.60;99.90;;;;;;6219622;23;20054;-87
2022/03/26 09:43:31;;;;;;;;;;;12.70;99.90;;;;;;6219515;23;20016;-87
2022/03/26 09:45:57;;;;;;;30.08;19.38;;;12.80;99.90;;;;;;6219326;23;19915;-87
2022/03/26 09:48:23;;;;;;;28.00;17.57;;;12.90;99.90;;;;;;6194086;23;20031;-87
2022/03/26 09:50:52;;;;;;;24.27;15.40;;;13.00;99.90;;;;;;6194079;23;20013;-88
2022/03/26 09:53:18;;;;;;;23.92;14.02;;;13.10;99.90;;;;;;6192043;23;20016;-86
2022/03/26 09:55:45;;;;;;;25.75;15.60;;;13.20;99.90;;;;;;6216080;23;20023;-87
2022/03/26 09:58:12;;;;;;;23.50;15.00;;;13.20;99.90;;;;;;6191343;23;20476;-88
2022/03/26 10:00:38;;;;;;;20.65;14.20;;;13.30;99.90;;;;;;6218000;23;20016;-86
2022/03/26 10:03:04;;;;;;;20.65;13.43;;;13.40;99.90;;;;;;6217337;23;20024;-87
2022/03/26 10:05:34;;;;;;;21.63;14.10;;;13.50;99.90;;;;;;6232468;22;20062;-87
2022/03/26 10:08:17;;;;;;;23.77;14.20;;;13.60;99.90;;;;;;6224070;22;20253;-87
2022/03/26 10:10:45;;;;;;;22.60;13.63;;;13.60;99.90;;;;;;6249509;22;20024;-88
2022/03/26 10:13:12;;;;;;;19.15;11.38;;;13.70;99.90;;;;;;6224271;22;20023;-88
2022/03/26 10:15:57;;;;;;;19.45;10.75;;;13.80;99.90;;;;;;6224316;22;20022;-87
2022/03/26 10:18:23;;;;;;;17.85;11.18;;;13.90;99.90;;;;;;6223789;22;20086;-87
2022/03/26 10:20:59;;;;;;;17.85;11.55;;;14.00;99.90;;;;;;6224714;22;20016;-89
2022/03/26 10:23:32;;;;;;;17.50;10.25;;;14.00;99.90;;;;;;6224123;22;20024;-87
2022/03/26 10:26:09;;;;;;;18.30;10.13;;;14.00;99.90;;;;;;6224194;22;20020;-89
2022/03/26 10:28:35;;;;;;;;;;;14.20;99.90;;;;;;6224986;22;20031;-88
2022/03/26 10:34:14;;;;;;;17.20;11.13;;;14.30;99.90;;;;;;6249373;22;20089;-88
2022/03/26 10:37:02;;;;;;;19.08;11.52;;;14.40;99.90;;;;;;6223245;22;20536;-92
2022/03/26 10:39:38;;;;;;;21.23;11.15;;;14.50;99.90;;;;;;6245590;22;20102;-87
2022/03/26 10:42:05;;;;;;;15.47;9.27;;;14.50;99.90;;;;;;6224122;22;20416;-92
2022/03/26 10:44:31;;;;;;;16.13;10.82;;;14.50;99.90;;;;;;6224584;22;20322;-89
2022/03/26 10:46:58;;;;;;;;;;;14.60;99.90;;;;;;6223447;22;20023;-90
2022/03/26 10:49:32;;;;;;;17.77;10.52;;;14.60;99.90;;;;;;6222535;22;19915;-91
2022/03/26 10:52:14;;;;;;;16.38;10.65;;;14.70;99.90;;;;;;6221813;22;20054;-93
2022/03/26 10:54:41;;;;;;;15.25;8.88;;;14.70;99.90;;;;;;6225053;22;20114;-94
2022/03/26 10:57:08;;;;;;;14.23;9.35;;;14.70;99.90;;;;;;6248765;22;20015;-92
2022/03/26 10:59:33;;;;;;;12.80;8.30;;;14.60;99.90;;;;;;6250147;22;20012;-94
2022/03/26 11:01:59;;;;;;;11.83;7.00;;;14.70;99.90;;;;;;6224571;22;20016;-90
2022/03/26 11:09:57;;;;;;;9.23;5.40;;;14.70;99.90;;;;;;6264446;22;20034;-90
2022/03/26 11:12:25;;;;;;;11.82;5.88;;;14.60;99.90;;;;;;6223632;22;20024;-91
2022/03/26 11:14:54;;;;;;;10.57;6.07;;;14.70;99.90;;;;;;6249790;22;20086;-93
2022/03/26 11:17:37;;;;;;;11.13;6.18;;;14.70;99.90;;;;;;6224545;22;20018;-90
2022/03/26 11:20:25;;;;;;;9.88;5.85;;;14.80;99.40;;;;;;6249795;22;20011;-93
2022/03/26 11:22:57;;;;;;;11.20;7.03;;;14.80;99.10;;;;;;6276699;22;20478;-88
2022/03/26 11:25:42;;;;;;;11.07;6.78;;;14.80;99.50;;;;;;6249907;22;20016;-88
2022/03/26 11:28:29;;;;;;;11.60;6.28;;;14.80;98.90;;;;;;6249934;22;20394;-92
2022/03/26 11:31:01;;;;;;;10.45;5.72;;;14.80;98.60;;;;;;6224236;22;20078;-88
2022/03/26 11:33:33;;;;;;;10.98;5.53;;;14.90;98.90;;;;;;6224666;22;20050;-89
2022/03/26 11:36:01;;;;;;;10.98;6.13;;;14.90;98.70;;;;;;6224168;22;20090;-93
2022/03/26 11:38:29;;;;;;;14.10;7.15;;;15.00;98.80;;;;;;6249944;22;20019;-90
2022/03/26 11:41:08;;;;;;;11.85;7.80;;;15.00;99.10;;;;;;6226204;22;20018;-90
2022/03/26 11:43:43;;;;;;;15.15;9.25;;;15.10;99.50;;;;;;6225605;22;20095;-89
2022/03/26 11:52:25;;;;;;;15.23;8.82;;;14.90;99.90;;;;;;6248704;22;20058;-92
2022/03/26 11:55:24;;;;;;;13.07;8.25;;;14.80;99.90;;;;;;6250742;22;20403;-93
2022/03/26 11:58:24;;;;;;;12.80;8.68;;;14.80;99.90;;;;;;6226515;22;20015;-93
2022/03/26 12:01:03;;;;;;;14.30;8.00;;;14.70;99.90;;;;;;6255655;22;20023;-96
2022/03/26 12:03:43;;;;;;;13.45;8.73;;;14.60;99.90;;;;;;6252273;22;20016;-92
2022/03/26 12:06:39;;;;;;;12.82;8.23;;;14.50;99.90;;;;;;6251415;22;20016;-92
2022/03/26 12:09:05;;;;;;;13.20;8.30;;;14.50;99.90;;;;;;6249855;22;20020;-90
2022/03/26 12:11:34;;;;;;;12.55;8.27;;;14.40;99.90;;;;;;6225819;22;20062;-94
2022/03/26 12:14:02;;;;;;;17.00;8.07;;;14.30;99.90;;;;;;6251464;22;20011;-91
2022/03/26 12:16:50;;;;;;;12.63;7.45;;;14.30;99.90;;;;;;6251561;22;20027;-89
2022/03/26 12:19:35;;;;;;;15.18;8.85;;;14.20;99.90;;;;;;6278021;22;20016;-91
2022/03/26 12:22:19;;;;;;;13.05;7.82;;;14.10;99.90;;;;;;6251467;22;20488;-86
2022/03/26 12:24:46;;;;;;;11.82;5.75;;;14.00;99.90;;;;;;6225638;22;20018;-90
2022/03/26 12:27:12;;;;;;;12.02;6.43;;;14.00;99.90;;;;;;6225718;22;20047;-87
2022/03/26 12:29:39;;;;;;;12.45;7.40;;;13.80;99.90;;;;;;6250871;22;20019;-92
2022/03/26 12:32:05;;;;;;;10.38;4.47;;;13.70;99.90;;;;;;6250246;22;20047;-93
2022/03/26 12:34:31;;;;;;;8.73;4.70;;;13.60;99.90;;;;;;6225427;22;20037;-92
2022/03/26 12:37:03;;;;;;;9.45;5.30;;;13.50;99.90;;;;;;6251056;22;20019;-87
2022/03/26 12:39:29;;;;;;;8.55;4.63;;;13.50;99.90;;;;;;6250930;22;20471;-87
2022/03/26 12:41:56;;;;;;;10.98;6.03;;;13.50;99.90;;;;;;6250968;22;20446;-92
2022/03/26 12:44:22;;;;;;;;;;;13.50;99.90;;;;;;6251228;22;20039;-89
2022/03/26 12:46:55;;;;;;;11.30;4.50;;;13.50;99.90;;;;;;6250699;22;19915;-88
2022/03/26 12:49:22;;;;;;;9.35;4.00;;;13.50;99.90;;;;;;6250650;22;20016;-87
2022/03/26 12:51:53;;;;;;;7.95;4.40;;;13.50;99.90;;;;;;6281055;22;20098;-86
2022/03/26 12:54:19;;;;;;;7.65;4.07;;;13.50;99.90;;;;;;6255963;22;20011;-90